sensor_id;sensor_type;location;lat;lon;timestamp;P1;durP1;ratioP1;P2;durP2;ratioP2
29960;SDS011;16816;44.444;26.152;2022-07-29T00:02:40;6.70;;;6.10;;
29960;SDS011;16816;44.444;26.152;2022-07-29T00:07:44;7.03;;;6.32;;
29960;SDS011;16816;44.444;26.152;2022-07-29T00:12:48;6.95;;;6.07;;
29960;SDS011;16816;44.444;26.152;2022-07-29T00:17:54;7.40;;;6.70;;
29960;SDS011;16816;44.444;26.152;2022-07-29T00:22:58;7.57;;;6.80;;
29960;SDS011;16816;44.444;26.152;2022-07-29T00:28:02;7.45;;;6.80;;
29960;SDS011;16816;44.444;26.152;2022-07-29T00:33:07;9.88;;;7.05;;
29960;SDS011;16816;44.444;26.152;2022-07-29T00:38:12;9.38;;;7.40;;
29960;SDS011;16816;44.444;26.152;2022-07-29T00:43:17;8.40;;;7.60;;
29960;SDS011;16816;44.444;26.152;2022-07-29T00:48:22;8.00;;;7.20;;
29960;SDS011;16816;44.444;26.152;2022-07-29T00:53:26;7.80;;;7.00;;
29960;SDS011;16816;44.444;26.152;2022-07-29T00:58:30;8.45;;;7.60;;
29960;SDS011;16816;44.444;26.152;2022-07-29T01:03:36;9.20;;;7.85;;
29960;SDS011;16816;44.444;26.152;2022-07-29T01:08:40;8.77;;;7.97;;
29960;SDS011;16816;44.444;26.152;2022-07-29T01:13:44;9.05;;;7.80;;
29960;SDS011;16816;44.444;26.152;2022-07-29T01:18:51;8.98;;;8.07;;
29960;SDS011;16816;44.444;26.152;2022-07-29T01:24:05;10.52;;;8.93;;
29960;SDS011;16816;44.444;26.152;2022-07-29T01:29:18;8.90;;;8.00;;
29960;SDS011;16816;44.444;26.152;2022-07-29T01:34:35;10.02;;;9.02;;
29960;SDS011;16816;44.444;26.152;2022-07-29T01:39:43;11.88;;;9.52;;
29960;SDS011;16816;44.444;26.152;2022-07-29T01:44:50;12.60;;;11.35;;
29960;SDS011;16816;44.444;26.152;2022-07-29T01:49:58;11.30;;;10.13;;
29960;SDS011;16816;44.444;26.152;2022-07-29T01:55:04;9.75;;;8.82;;
29960;SDS011;16816;44.444;26.152;2022-07-29T02:00:13;10.50;;;9.27;;
29960;SDS011;16816;44.444;26.152;2022-07-29T02:05:18;9.45;;;8.45;;
29960;SDS011;16816;44.444;26.152;2022-07-29T02:10:26;9.52;;;8.63;;
29960;SDS011;16816;44.444;26.152;2022-07-29T02:15:33;9.90;;;8.88;;
29960;SDS011;16816;44.444;26.152;2022-07-29T02:25:42;9.88;;;8.80;;
29960;SDS011;16816;44.444;26.152;2022-07-29T02:30:47;9.88;;;8.98;;
29960;SDS011;16816;44.444;26.152;2022-07-29T02:35:53;9.45;;;8.65;;
29960;SDS011;16816;44.444;26.152;2022-07-29T02:40:58;10.50;;;9.00;;
29960;SDS011;16816;44.444;26.152;2022-07-29T02:46:05;10.05;;;9.05;;
29960;SDS011;16816;44.444;26.152;2022-07-29T02:51:32;12.98;;;9.50;;
29960;SDS011;16816;44.444;26.152;2022-07-29T02:56:45;12.25;;;8.63;;
29960;SDS011;16816;44.444;26.152;2022-07-29T03:01:51;9.60;;;8.27;;
29960;SDS011;16816;44.444;26.152;2022-07-29T03:06:56;9.05;;;7.97;;
29960;SDS011;16816;44.444;26.152;2022-07-29T03:12:03;10.07;;;8.32;;
29960;SDS011;16816;44.444;26.152;2022-07-29T03:17:09;8.70;;;7.87;;
29960;SDS011;16816;44.444;26.152;2022-07-29T03:22:13;8.95;;;6.88;;
29960;SDS011;16816;44.444;26.152;2022-07-29T03:27:20;8.65;;;7.10;;
29960;SDS011;16816;44.444;26.152;2022-07-29T03:32:25;8.57;;;7.78;;
29960;SDS011;16816;44.444;26.152;2022-07-29T03:37:29;9.90;;;7.77;;
29960;SDS011;16816;44.444;26.152;2022-07-29T03:42:33;9.60;;;6.95;;
29960;SDS011;16816;44.444;26.152;2022-07-29T03:47:42;44.47;;;10.07;;
29960;SDS011;16816;44.444;26.152;2022-07-29T03:52:52;15.07;;;7.75;;
29960;SDS011;16816;44.444;26.152;2022-07-29T03:57:56;11.93;;;8.68;;
29960;SDS011;16816;44.444;26.152;2022-07-29T04:03:02;12.77;;;8.32;;
29960;SDS011;16816;44.444;26.152;2022-07-29T04:08:12;8.02;;;7.22;;
29960;SDS011;16816;44.444;26.152;2022-07-29T04:13:16;10.05;;;8.32;;
29960;SDS011;16816;44.444;26.152;2022-07-29T04:18:21;12.10;;;8.20;;
29960;SDS011;16816;44.444;26.152;2022-07-29T04:23:26;9.85;;;8.05;;
29960;SDS011;16816;44.444;26.152;2022-07-29T04:28:29;10.23;;;7.95;;
29960;SDS011;16816;44.444;26.152;2022-07-29T04:33:35;10.07;;;8.18;;
29960;SDS011;16816;44.444;26.152;2022-07-29T04:38:39;14.02;;;8.00;;
29960;SDS011;16816;44.444;26.152;2022-07-29T04:43:43;11.30;;;7.97;;
29960;SDS011;16816;44.444;26.152;2022-07-29T04:48:48;12.00;;;8.45;;
29960;SDS011;16816;44.444;26.152;2022-07-29T04:53:52;11.38;;;7.90;;
29960;SDS011;16816;44.444;26.152;2022-07-29T04:58:56;11.60;;;7.95;;
29960;SDS011;16816;44.444;26.152;2022-07-29T05:04:01;10.30;;;7.22;;
29960;SDS011;16816;44.444;26.152;2022-07-29T05:09:05;13.85;;;8.30;;
29960;SDS011;16816;44.444;26.152;2022-07-29T05:14:09;10.82;;;7.00;;
29960;SDS011;16816;44.444;26.152;2022-07-29T05:19:20;11.77;;;6.93;;
29960;SDS011;16816;44.444;26.152;2022-07-29T05:24:24;11.05;;;7.38;;
29960;SDS011;16816;44.444;26.152;2022-07-29T05:29:27;11.38;;;6.70;;
29960;SDS011;16816;44.444;26.152;2022-07-29T05:34:47;14.02;;;6.95;;
29960;SDS011;16816;44.444;26.152;2022-07-29T05:39:53;7.88;;;7.07;;
29960;SDS011;16816;44.444;26.152;2022-07-29T05:44:58;12.32;;;6.72;;
29960;SDS011;16816;44.444;26.152;2022-07-29T05:50:04;10.60;;;6.80;;
29960;SDS011;16816;44.444;26.152;2022-07-29T05:55:08;9.25;;;6.75;;
29960;SDS011;16816;44.444;26.152;2022-07-29T06:00:13;9.98;;;5.68;;
29960;SDS011;16816;44.444;26.152;2022-07-29T06:05:19;8.27;;;5.70;;
29960;SDS011;16816;44.444;26.152;2022-07-29T06:10:23;9.60;;;5.90;;
29960;SDS011;16816;44.444;26.152;2022-07-29T06:15:28;13.05;;;6.32;;
29960;SDS011;16816;44.444;26.152;2022-07-29T06:20:33;8.70;;;5.85;;
29960;SDS011;16816;44.444;26.152;2022-07-29T06:25:37;6.78;;;5.47;;
29960;SDS011;16816;44.444;26.152;2022-07-29T06:30:43;10.32;;;6.22;;
29960;SDS011;16816;44.444;26.152;2022-07-29T06:35:48;9.27;;;5.88;;
29960;SDS011;16816;44.444;26.152;2022-07-29T06:40:56;11.30;;;5.70;;
29960;SDS011;16816;44.444;26.152;2022-07-29T06:46:08;11.18;;;5.40;;
29960;SDS011;16816;44.444;26.152;2022-07-29T06:51:14;7.97;;;5.07;;
29960;SDS011;16816;44.444;26.152;2022-07-29T06:56:24;8.50;;;5.00;;
29960;SDS011;16816;44.444;26.152;2022-07-29T07:01:28;9.57;;;4.63;;
29960;SDS011;16816;44.444;26.152;2022-07-29T07:06:33;9.50;;;4.70;;
29960;SDS011;16816;44.444;26.152;2022-07-29T07:16:41;7.03;;;5.57;;
29960;SDS011;16816;44.444;26.152;2022-07-29T07:21:46;12.30;;;5.07;;
29960;SDS011;16816;44.444;26.152;2022-07-29T07:26:50;7.93;;;4.75;;
29960;SDS011;16816;44.444;26.152;2022-07-29T07:31:54;8.13;;;5.22;;
29960;SDS011;16816;44.444;26.152;2022-07-29T07:37:03;8.90;;;4.68;;
29960;SDS011;16816;44.444;26.152;2022-07-29T07:42:07;7.05;;;4.45;;
29960;SDS011;16816;44.444;26.152;2022-07-29T07:47:13;12.98;;;5.60;;
29960;SDS011;16816;44.444;26.152;2022-07-29T07:52:20;5.03;;;4.03;;
29960;SDS011;16816;44.444;26.152;2022-07-29T07:57:25;5.10;;;3.95;;
29960;SDS011;16816;44.444;26.152;2022-07-29T08:02:29;6.15;;;4.03;;
29960;SDS011;16816;44.444;26.152;2022-07-29T08:07:34;7.45;;;3.72;;
29960;SDS011;16816;44.444;26.152;2022-07-29T08:12:38;9.50;;;3.88;;
29960;SDS011;16816;44.444;26.152;2022-07-29T08:17:42;4.55;;;3.60;;
29960;SDS011;16816;44.444;26.152;2022-07-29T08:22:47;12.02;;;4.43;;
29960;SDS011;16816;44.444;26.152;2022-07-29T08:27:51;8.73;;;4.00;;
29960;SDS011;16816;44.444;26.152;2022-07-29T08:32:55;7.30;;;3.83;;
29960;SDS011;16816;44.444;26.152;2022-07-29T08:38:00;7.22;;;4.13;;
29960;SDS011;16816;44.444;26.152;2022-07-29T08:43:05;5.25;;;3.47;;
29960;SDS011;16816;44.444;26.152;2022-07-29T08:48:11;9.00;;;3.97;;
29960;SDS011;16816;44.444;26.152;2022-07-29T09:03:29;7.37;;;3.70;;
29960;SDS011;16816;44.444;26.152;2022-07-29T09:08:35;5.20;;;4.10;;
29960;SDS011;16816;44.444;26.152;2022-07-29T09:13:39;7.85;;;3.63;;
29960;SDS011;16816;44.444;26.152;2022-07-29T09:18:44;4.10;;;3.57;;
29960;SDS011;16816;44.444;26.152;2022-07-29T09:24:04;8.40;;;4.05;;
29960;SDS011;16816;44.444;26.152;2022-07-29T09:29:12;7.05;;;4.20;;
29960;SDS011;16816;44.444;26.152;2022-07-29T09:34:21;4.32;;;3.55;;
29960;SDS011;16816;44.444;26.152;2022-07-29T09:39:28;9.55;;;3.70;;
29960;SDS011;16816;44.444;26.152;2022-07-29T09:44:42;10.43;;;3.47;;
29960;SDS011;16816;44.444;26.152;2022-07-29T09:49:51;4.78;;;3.90;;
29960;SDS011;16816;44.444;26.152;2022-07-29T09:55:05;7.03;;;4.05;;
29960;SDS011;16816;44.444;26.152;2022-07-29T10:00:10;6.43;;;4.07;;
29960;SDS011;16816;44.444;26.152;2022-07-29T10:05:16;9.82;;;3.90;;
29960;SDS011;16816;44.444;26.152;2022-07-29T10:10:23;6.03;;;3.83;;
29960;SDS011;16816;44.444;26.152;2022-07-29T10:15:30;6.28;;;3.40;;
29960;SDS011;16816;44.444;26.152;2022-07-29T10:20:34;9.82;;;3.60;;
29960;SDS011;16816;44.444;26.152;2022-07-29T10:25:40;8.15;;;3.45;;
29960;SDS011;16816;44.444;26.152;2022-07-29T10:30:48;7.25;;;3.35;;
29960;SDS011;16816;44.444;26.152;2022-07-29T10:36:02;6.00;;;3.38;;
29960;SDS011;16816;44.444;26.152;2022-07-29T10:41:16;5.90;;;3.17;;
29960;SDS011;16816;44.444;26.152;2022-07-29T10:46:36;7.50;;;3.60;;
29960;SDS011;16816;44.444;26.152;2022-07-29T10:51:52;7.05;;;3.42;;
29960;SDS011;16816;44.444;26.152;2022-07-29T10:56:58;6.85;;;3.10;;
29960;SDS011;16816;44.444;26.152;2022-07-29T11:02:48;7.30;;;3.53;;
29960;SDS011;16816;44.444;26.152;2022-07-29T11:13:50;5.45;;;2.80;;
29960;SDS011;16816;44.444;26.152;2022-07-29T11:24:31;7.63;;;2.55;;
29960;SDS011;16816;44.444;26.152;2022-07-29T11:29:52;6.63;;;2.80;;
29960;SDS011;16816;44.444;26.152;2022-07-29T11:35:12;6.32;;;2.83;;
29960;SDS011;16816;44.444;26.152;2022-07-29T11:40:20;6.43;;;3.35;;
29960;SDS011;16816;44.444;26.152;2022-07-29T11:45:26;6.95;;;3.33;;
29960;SDS011;16816;44.444;26.152;2022-07-29T11:50:54;6.80;;;3.03;;
29960;SDS011;16816;44.444;26.152;2022-07-29T11:55:59;13.00;;;3.13;;
29960;SDS011;16816;44.444;26.152;2022-07-29T12:01:06;4.00;;;2.83;;
29960;SDS011;16816;44.444;26.152;2022-07-29T12:06:12;4.22;;;2.58;;
29960;SDS011;16816;44.444;26.152;2022-07-29T12:11:19;10.38;;;3.10;;
29960;SDS011;16816;44.444;26.152;2022-07-29T12:16:33;4.00;;;2.50;;
29960;SDS011;16816;44.444;26.152;2022-07-29T12:21:45;13.20;;;3.33;;
29960;SDS011;16816;44.444;26.152;2022-07-29T12:27:00;6.22;;;2.40;;
29960;SDS011;16816;44.444;26.152;2022-07-29T12:32:05;4.78;;;3.10;;
29960;SDS011;16816;44.444;26.152;2022-07-29T12:37:20;5.28;;;2.70;;
29960;SDS011;16816;44.444;26.152;2022-07-29T12:42:53;4.03;;;3.00;;
29960;SDS011;16816;44.444;26.152;2022-07-29T12:48:10;9.65;;;3.28;;
29960;SDS011;16816;44.444;26.152;2022-07-29T12:53:14;5.45;;;2.88;;
29960;SDS011;16816;44.444;26.152;2022-07-29T12:58:28;7.82;;;3.15;;
29960;SDS011;16816;44.444;26.152;2022-07-29T13:03:43;3.50;;;3.20;;
29960;SDS011;16816;44.444;26.152;2022-07-29T13:08:58;5.18;;;2.65;;
29960;SDS011;16816;44.444;26.152;2022-07-29T13:14:03;7.10;;;2.95;;
29960;SDS011;16816;44.444;26.152;2022-07-29T13:19:10;4.88;;;2.60;;
29960;SDS011;16816;44.444;26.152;2022-07-29T13:24:15;4.90;;;2.70;;
29960;SDS011;16816;44.444;26.152;2022-07-29T13:29:21;7.88;;;2.90;;
29960;SDS011;16816;44.444;26.152;2022-07-29T13:34:31;4.15;;;2.60;;
29960;SDS011;16816;44.444;26.152;2022-07-29T13:39:34;5.57;;;2.83;;
29960;SDS011;16816;44.444;26.152;2022-07-29T13:44:39;6.05;;;3.13;;
29960;SDS011;16816;44.444;26.152;2022-07-29T13:49:45;6.68;;;3.17;;
29960;SDS011;16816;44.444;26.152;2022-07-29T13:54:49;6.22;;;3.70;;
29960;SDS011;16816;44.444;26.152;2022-07-29T13:59:53;7.10;;;3.30;;
29960;SDS011;16816;44.444;26.152;2022-07-29T14:04:58;7.55;;;3.78;;
29960;SDS011;16816;44.444;26.152;2022-07-29T14:10:09;7.57;;;3.60;;
29960;SDS011;16816;44.444;26.152;2022-07-29T14:15:13;6.28;;;2.92;;
29960;SDS011;16816;44.444;26.152;2022-07-29T14:20:18;3.97;;;3.58;;
29960;SDS011;16816;44.444;26.152;2022-07-29T14:25:22;5.90;;;3.47;;
29960;SDS011;16816;44.444;26.152;2022-07-29T14:35:31;3.40;;;3.10;;
29960;SDS011;16816;44.444;26.152;2022-07-29T14:40:35;4.05;;;3.03;;
29960;SDS011;16816;44.444;26.152;2022-07-29T14:45:39;4.65;;;4.03;;
29960;SDS011;16816;44.444;26.152;2022-07-29T14:50:44;7.38;;;3.70;;
29960;SDS011;16816;44.444;26.152;2022-07-29T14:55:48;7.97;;;3.28;;
29960;SDS011;16816;44.444;26.152;2022-07-29T15:00:52;4.47;;;3.45;;
29960;SDS011;16816;44.444;26.152;2022-07-29T15:05:58;5.32;;;3.90;;
29960;SDS011;16816;44.444;26.152;2022-07-29T15:11:02;10.68;;;4.70;;
29960;SDS011;16816;44.444;26.152;2022-07-29T15:16:06;7.60;;;4.32;;
29960;SDS011;16816;44.444;26.152;2022-07-29T15:21:11;5.18;;;3.78;;
29960;SDS011;16816;44.444;26.152;2022-07-29T15:26:15;6.70;;;3.70;;
29960;SDS011;16816;44.444;26.152;2022-07-29T15:31:19;7.60;;;3.72;;
29960;SDS011;16816;44.444;26.152;2022-07-29T15:36:25;3.50;;;3.20;;
29960;SDS011;16816;44.444;26.152;2022-07-29T15:41:49;4.75;;;3.67;;
29960;SDS011;16816;44.444;26.152;2022-07-29T15:52:08;6.70;;;3.88;;
29960;SDS011;16816;44.444;26.152;2022-07-29T15:57:13;7.20;;;3.70;;
29960;SDS011;16816;44.444;26.152;2022-07-29T16:02:17;5.17;;;4.07;;
29960;SDS011;16816;44.444;26.152;2022-07-29T16:07:23;5.43;;;4.90;;
29960;SDS011;16816;44.444;26.152;2022-07-29T16:12:33;7.55;;;4.03;;
29960;SDS011;16816;44.444;26.152;2022-07-29T16:17:37;9.07;;;4.67;;
29960;SDS011;16816;44.444;26.152;2022-07-29T16:22:43;5.30;;;3.65;;
29960;SDS011;16816;44.444;26.152;2022-07-29T16:27:47;7.90;;;4.18;;
29960;SDS011;16816;44.444;26.152;2022-07-29T16:32:51;8.07;;;5.10;;
29960;SDS011;16816;44.444;26.152;2022-07-29T16:37:56;11.40;;;9.67;;
29960;SDS011;16816;44.444;26.152;2022-07-29T16:43:00;12.77;;;7.95;;
29960;SDS011;16816;44.444;26.152;2022-07-29T16:48:04;6.85;;;5.10;;
29960;SDS011;16816;44.444;26.152;2022-07-29T16:53:10;11.03;;;7.53;;
29960;SDS011;16816;44.444;26.152;2022-07-29T16:58:13;10.13;;;5.43;;
29960;SDS011;16816;44.444;26.152;2022-07-29T17:03:17;19.90;;;10.10;;
29960;SDS011;16816;44.444;26.152;2022-07-29T17:08:23;12.33;;;5.43;;
29960;SDS011;16816;44.444;26.152;2022-07-29T17:13:27;10.50;;;6.35;;
29960;SDS011;16816;44.444;26.152;2022-07-29T17:18:30;14.05;;;11.20;;
29960;SDS011;16816;44.444;26.152;2022-07-29T17:23:36;12.65;;;6.75;;
29960;SDS011;16816;44.444;26.152;2022-07-29T17:28:40;11.18;;;8.68;;
29960;SDS011;16816;44.444;26.152;2022-07-29T17:33:44;8.48;;;7.32;;
29960;SDS011;16816;44.444;26.152;2022-07-29T17:38:49;12.98;;;6.85;;
29960;SDS011;16816;44.444;26.152;2022-07-29T17:43:54;8.38;;;5.85;;
29960;SDS011;16816;44.444;26.152;2022-07-29T17:48:58;17.02;;;7.63;;
29960;SDS011;16816;44.444;26.152;2022-07-29T17:54:04;17.27;;;6.88;;
29960;SDS011;16816;44.444;26.152;2022-07-29T17:59:08;14.20;;;5.68;;
29960;SDS011;16816;44.444;26.152;2022-07-29T18:04:12;14.10;;;6.60;;
29960;SDS011;16816;44.444;26.152;2022-07-29T18:09:22;12.18;;;6.32;;
29960;SDS011;16816;44.444;26.152;2022-07-29T18:14:26;12.50;;;6.40;;
29960;SDS011;16816;44.444;26.152;2022-07-29T18:19:30;12.70;;;6.18;;
29960;SDS011;16816;44.444;26.152;2022-07-29T18:24:35;10.25;;;5.90;;
29960;SDS011;16816;44.444;26.152;2022-07-29T18:29:39;17.40;;;6.43;;
29960;SDS011;16816;44.444;26.152;2022-07-29T18:34:43;8.32;;;6.25;;
29960;SDS011;16816;44.444;26.152;2022-07-29T18:39:49;12.68;;;6.60;;
29960;SDS011;16816;44.444;26.152;2022-07-29T18:44:52;12.98;;;7.35;;
29960;SDS011;16816;44.444;26.152;2022-07-29T18:49:56;14.38;;;6.28;;
29960;SDS011;16816;44.444;26.152;2022-07-29T18:55:02;9.35;;;6.03;;
29960;SDS011;16816;44.444;26.152;2022-07-29T19:00:07;7.72;;;5.65;;
29960;SDS011;16816;44.444;26.152;2022-07-29T19:05:14;14.88;;;6.50;;
29960;SDS011;16816;44.444;26.152;2022-07-29T19:10:19;7.35;;;5.68;;
29960;SDS011;16816;44.444;26.152;2022-07-29T19:20:27;10.55;;;6.18;;
29960;SDS011;16816;44.444;26.152;2022-07-29T19:25:32;9.95;;;6.97;;
29960;SDS011;16816;44.444;26.152;2022-07-29T19:30:37;10.13;;;6.00;;
29960;SDS011;16816;44.444;26.152;2022-07-29T19:35:41;9.27;;;6.47;;
29960;SDS011;16816;44.444;26.152;2022-07-29T19:40:46;12.98;;;5.93;;
29960;SDS011;16816;44.444;26.152;2022-07-29T19:50:54;14.52;;;6.38;;
29960;SDS011;16816;44.444;26.152;2022-07-29T19:55:59;10.93;;;6.60;;
29960;SDS011;16816;44.444;26.152;2022-07-29T20:01:04;10.55;;;7.03;;
29960;SDS011;16816;44.444;26.152;2022-07-29T20:06:12;11.38;;;6.63;;
29960;SDS011;16816;44.444;26.152;2022-07-29T20:11:17;12.23;;;6.88;;
29960;SDS011;16816;44.444;26.152;2022-07-29T20:16:21;10.77;;;6.95;;
29960;SDS011;16816;44.444;26.152;2022-07-29T20:21:26;9.20;;;6.90;;
29960;SDS011;16816;44.444;26.152;2022-07-29T20:26:32;9.68;;;6.40;;
29960;SDS011;16816;44.444;26.152;2022-07-29T20:31:35;11.30;;;6.60;;
29960;SDS011;16816;44.444;26.152;2022-07-29T20:36:39;8.90;;;7.28;;
29960;SDS011;16816;44.444;26.152;2022-07-29T20:41:45;7.40;;;6.45;;
29960;SDS011;16816;44.444;26.152;2022-07-29T20:46:49;11.95;;;6.90;;
29960;SDS011;16816;44.444;26.152;2022-07-29T20:51:52;9.88;;;6.93;;
29960;SDS011;16816;44.444;26.152;2022-07-29T20:56:58;13.02;;;6.93;;
29960;SDS011;16816;44.444;26.152;2022-07-29T21:02:02;8.52;;;6.68;;
29960;SDS011;16816;44.444;26.152;2022-07-29T21:07:06;10.85;;;6.78;;
29960;SDS011;16816;44.444;26.152;2022-07-29T21:12:12;11.73;;;7.25;;
29960;SDS011;16816;44.444;26.152;2022-07-29T21:17:16;9.43;;;6.53;;
29960;SDS011;16816;44.444;26.152;2022-07-29T21:22:23;11.80;;;7.10;;
29960;SDS011;16816;44.444;26.152;2022-07-29T21:27:29;8.75;;;6.65;;
29960;SDS011;16816;44.444;26.152;2022-07-29T21:32:50;8.13;;;6.18;;
29960;SDS011;16816;44.444;26.152;2022-07-29T21:37:54;8.38;;;6.88;;
29960;SDS011;16816;44.444;26.152;2022-07-29T21:42:59;11.10;;;6.47;;
29960;SDS011;16816;44.444;26.152;2022-07-29T21:48:03;11.98;;;7.43;;
29960;SDS011;16816;44.444;26.152;2022-07-29T21:53:08;11.07;;;6.68;;
29960;SDS011;16816;44.444;26.152;2022-07-29T21:58:17;7.43;;;6.65;;
29960;SDS011;16816;44.444;26.152;2022-07-29T22:03:22;7.47;;;6.60;;
29960;SDS011;16816;44.444;26.152;2022-07-29T22:08:26;8.35;;;6.55;;
29960;SDS011;16816;44.444;26.152;2022-07-29T22:13:31;7.70;;;7.00;;
29960;SDS011;16816;44.444;26.152;2022-07-29T22:18:38;10.48;;;6.97;;
29960;SDS011;16816;44.444;26.152;2022-07-29T22:23:41;7.35;;;6.65;;
29960;SDS011;16816;44.444;26.152;2022-07-29T22:28:47;6.93;;;5.93;;
29960;SDS011;16816;44.444;26.152;2022-07-29T22:33:51;7.18;;;6.38;;
29960;SDS011;16816;44.444;26.152;2022-07-29T22:38:55;7.22;;;6.53;;
29960;SDS011;16816;44.444;26.152;2022-07-29T22:44:00;7.82;;;6.20;;
29960;SDS011;16816;44.444;26.152;2022-07-29T22:49:04;7.35;;;6.20;;
29960;SDS011;16816;44.444;26.152;2022-07-29T22:54:08;7.18;;;6.47;;
29960;SDS011;16816;44.444;26.152;2022-07-29T22:59:13;8.10;;;7.30;;
29960;SDS011;16816;44.444;26.152;2022-07-29T23:04:17;8.33;;;7.63;;
29960;SDS011;16816;44.444;26.152;2022-07-29T23:09:24;7.43;;;6.82;;
29960;SDS011;16816;44.444;26.152;2022-07-29T23:14:29;7.57;;;6.82;;
29960;SDS011;16816;44.444;26.152;2022-07-29T23:19:33;7.43;;;6.83;;
29960;SDS011;16816;44.444;26.152;2022-07-29T23:24:37;8.30;;;7.50;;
29960;SDS011;16816;44.444;26.152;2022-07-29T23:29:43;8.10;;;7.40;;
29960;SDS011;16816;44.444;26.152;2022-07-29T23:34:47;7.90;;;7.30;;
29960;SDS011;16816;44.444;26.152;2022-07-29T23:39:51;8.00;;;7.10;;
29960;SDS011;16816;44.444;26.152;2022-07-29T23:44:56;8.23;;;7.25;;
29960;SDS011;16816;44.444;26.152;2022-07-29T23:50:00;7.23;;;6.67;;
29960;SDS011;16816;44.444;26.152;2022-07-29T23:55:04;8.27;;;7.47;;
